Aérodrome :
LOGIN :

S'inscrire | Disclaimer

   EN    FR    IT 

 










Légende :    VFR   VFR Marginal   IFR   IFR Intensif   IFR Très Intensif
Visi : 
Plafond : 
>= 8 km
>= 3000ft
5 à 8 km
1000 à 3000 ft
1500m à 5 km
500 à 1000 ft
800 à 1500m
200 à 500 ft
< 800m
< 200 ft
Symboles :   Orages  Brouillard  Fortes neiges  Fortes précipitations  Vent > 20 kt
SIGMETs :   Divers  Orages  Givrage  Turbulence  Onde Orograph.  Cendres Volcan.






- Altitude de l'aérodrome : 121 ft
- Code IATA : HUY


EGNJ - Humberside

DERNIER METAR :
  • 020620Z AUTO 24009KT 9999 NCD 05/04 Q1013

METARs EXPIRÉS :
  • 020550Z AUTO 21012KT 9999 NCD 05/04 Q1013
  • 020520Z AUTO 21012KT 9999 FEW026/// 05/04 Q1013
  • 020450Z AUTO 21009KT 9999 NCD 06/04 Q1014
  • 020420Z AUTO 21009KT 9999 SCT015/// BKN033/// 05/04 Q1014
  • 020350Z AUTO 21009KT 9999 BKN015/// OVC020/// 06/04 Q1014

TAF TAF EGNJ
Valide du 02 à 06h jusqu'au 02 à 15h UTC


020454Z 0206/0215 23009KT 9999 BKN030
BECMG 0208/0211 27015G28KT
ATIS : +44 1652 682 020



MET'MAP, la Météo Aéronautique d'un coup d'oeil ! - Copyright ORBIFLY Décembre 2007 - Disclaimer

ORBIFLY MET'MAP TEAM :

Programmation & Développement : Alexandra Zaïnal
Sur une idée originale de : Baudouin d'Aumeries
Assistance à la programmation : Marc-Olivier Méhu
Soutien technique & logistique : Manuel Goepfert

Contact : metmap@orbifly.com




SOURCES & CREDITS :

   NOAA